Time;durP1;ratioP1;P1;durP2;ratioP2;P2;SDS_P1;SDS_P2;PMS_P1;PMS_P2;Temp;Humidity;BMP_temperature;BMP_pressure;BME280_temperature;BME280_humidity;BME280_pressure;Samples;Min_cycle;Max_cycle;Signal;HPM_P1;HPM_P2
2022/07/02 00:00:15;;;;;;;3.97;3.58;;;;;;;15.56;75.64;93474.81;2068905;69;20156;-73
2022/07/02 00:02:43;;;;;;;4.10;3.30;;;;;;;15.40;76.67;93480.34;2068803;69;20148;-81
2022/07/02 00:05:13;;;;;;;3.78;3.10;;;;;;;15.40;76.54;93474.69;2068975;69;20164;-79
2022/07/02 00:07:38;;;;;;;4.03;3.10;;;;;;;15.54;76.56;93469.03;2068555;69;20137;-77
2022/07/02 00:10:05;;;;;;;5.50;3.05;;;;;;;15.81;74.61;93470.50;2067926;69;20148;-72
2022/07/02 00:12:31;;;;;;;5.70;3.50;;;;;;;15.74;75.15;93472.25;2068235;69;20345;-76
2022/07/02 00:14:58;;;;;;;4.00;3.45;;;;;;;15.83;74.11;93476.28;2068860;69;20137;-73
2022/07/02 00:17:25;;;;;;;4.68;3.70;;;;;;;15.78;75.55;93469.66;2068891;69;20168;-76
2022/07/02 00:19:52;;;;;;;4.43;3.85;;;;;;;15.81;75.09;93467.66;2068777;69;20551;-74
2022/07/02 00:22:19;;;;;;;4.88;3.65;;;;;;;15.97;72.93;93471.34;2068685;69;20140;-76
2022/07/02 00:24:45;;;;;;;4.47;3.80;;;;;;;15.87;74.64;93476.50;2068765;69;20153;-80
2022/07/02 00:27:13;;;;;;;6.22;4.25;;;;;;;15.62;75.92;93469.47;2068972;69;20582;-84
2022/07/02 00:29:54;;;;;;;3.72;3.33;;;;;;;15.95;73.80;93477.66;2068251;69;20224;-80
2022/07/02 00:32:20;;;;;;;5.78;3.92;;;;;;;15.95;73.96;93474.09;2068129;69;20148;-75
2022/07/02 00:34:46;;;;;;;6.53;4.00;;;;;;;15.92;73.92;93473.25;2068749;69;20151;-83
2022/07/02 00:37:13;;;;;;;5.47;3.75;;;;;;;15.93;73.81;93465.47;2068209;69;20224;-81
2022/07/02 00:39:40;;;;;;;8.77;3.90;;;;;;;15.99;73.09;93468.63;2068709;69;20164;-72
2022/07/02 00:42:07;;;;;;;5.65;3.60;;;;;;;15.98;73.55;93473.56;2068841;69;20152;-74
2022/07/02 00:44:34;;;;;;;5.60;3.83;;;;;;;15.84;74.36;93469.22;2068788;69;20133;-75
2022/07/02 00:47:04;;;;;;;7.07;4.28;;;;;;;15.40;77.10;93466.16;2068710;69;20670;-75
2022/07/02 00:49:35;;;;;;;5.63;3.92;;;;;;;15.72;75.90;93480.69;2068829;69;20223;-74
2022/07/02 00:52:02;;;;;;;9.23;4.30;;;;;;;15.19;78.29;93474.91;2068129;69;20144;-76
2022/07/02 00:54:28;;;;;;;7.70;5.35;;;;;;;15.13;78.53;93469.63;2068596;69;20175;-75
2022/07/02 00:56:54;;;;;;;6.97;4.85;;;;;;;15.12;79.18;93473.06;2068857;69;20609;-81
2022/07/02 00:59:24;;;;;;;7.93;5.07;;;;;;;15.24;78.49;93462.41;2068757;69;20497;-76
2022/07/02 01:01:51;;;;;;;9.25;5.53;;;;;;;15.32;77.88;93462.13;2068613;69;20227;-81
2022/07/02 01:04:18;;;;;;;6.05;4.80;;;;;;;15.47;76.72;93465.13;2068737;69;20148;-81
2022/07/02 01:06:45;;;;;;;7.25;4.90;;;;;;;15.60;75.68;93466.53;2068752;69;20199;-82
2022/07/02 01:12:01;;;;;;;5.95;4.97;;;;;;;15.56;76.34;93463.47;2067794;69;20157;-80
2022/07/02 01:14:27;;;;;;;7.50;4.95;;;;;;;15.32;78.02;93467.81;2068497;69;20137;-81
2022/07/02 01:16:54;;;;;;;6.55;4.80;;;;;;;15.60;76.28;93471.47;2068670;69;20140;-81
2022/07/02 01:19:21;;;;;;;7.47;5.45;;;;;;;15.41;77.45;93472.56;2068626;69;20144;-85
2022/07/02 01:22:10;;;;;;;7.43;5.00;;;;;;;15.79;73.40;93464.69;2068591;69;20137;-75
2022/07/02 01:24:36;;;;;;;5.93;5.18;;;;;;;15.52;75.91;93463.97;2068537;69;20579;-82
2022/07/02 01:27:02;;;;;;;7.45;5.30;;;;;;;15.72;74.86;93467.22;2068654;69;20694;-72
2022/07/02 01:29:28;;;;;;;10.10;5.78;;;;;;;15.58;76.35;93466.44;2068252;69;20583;-73
2022/07/02 01:31:53;;;;;;;6.40;5.60;;;;;;;15.41;77.66;93456.28;2068625;69;20144;-74
2022/07/02 01:34:19;;;;;;;8.40;5.88;;;;;;;15.21;78.35;93460.81;2068613;69;20272;-75
2022/07/02 01:36:44;;;;;;;8.38;5.53;;;;;;;15.52;76.32;93466.09;2068734;69;20170;-77
2022/07/02 01:39:10;;;;;;;6.93;5.70;;;;;;;15.68;75.97;93461.31;2068496;69;20145;-76
2022/07/02 01:41:39;;;;;;;7.07;5.28;;;;;;;15.70;75.79;93455.75;2068739;69;20152;-75
2022/07/02 01:44:08;;;;;;;10.05;6.20;;;;;;;15.12;78.10;93451.16;2068738;69;20229;-77
2022/07/02 01:46:34;;;;;;;6.85;5.95;;;;;;;15.30;77.93;93445.00;2068039;69;20184;-74
2022/07/02 01:49:00;;;;;;;6.78;5.32;;;;;;;15.25;78.50;93449.72;2068608;69;20562;-79
2022/07/02 01:51:26;;;;;;;7.60;5.50;;;;;;;15.41;76.89;93449.88;2068535;69;20176;-77
2022/07/02 01:53:51;;;;;;;8.27;5.40;;;;;;;15.09;78.57;93452.38;2068445;69;20244;-83
2022/07/02 01:56:17;;;;;;;6.15;5.45;;;;;;;15.08;78.98;93450.91;2068700;69;20575;-83
2022/07/02 01:58:43;;;;;;;7.90;5.13;;;;;;;15.47;76.89;93459.44;2068493;69;20195;-82
2022/07/02 02:01:09;;;;;;;7.35;5.20;;;;;;;15.07;78.99;93455.09;2068792;69;20152;-72
2022/07/02 02:03:34;;;;;;;6.60;5.70;;;;;;;15.25;78.01;93452.53;2067975;69;20232;-73
2022/07/02 02:06:00;;;;;;;6.95;6.25;;;;;;;15.57;76.30;93458.53;2065424;69;20229;-74
2022/07/02 02:08:26;;;;;;;7.03;6.32;;;;;;;15.57;75.99;93459.25;2068958;69;20503;-74
2022/07/02 02:10:51;;;;;;;9.73;7.85;;;;;;;15.62;75.83;93457.38;2071761;69;20140;-75
2022/07/02 02:13:17;;;;;;;8.05;6.88;;;;;;;15.71;75.04;93467.84;2071669;69;20156;-74
2022/07/02 02:15:43;;;;;;;8.68;7.50;;;;;;;15.68;75.98;93467.00;2071676;69;20156;-81
2022/07/02 02:18:08;;;;;;;7.80;7.00;;;;;;;15.66;76.07;93461.19;2071899;69;20152;-72
2022/07/02 02:20:34;;;;;;;7.57;6.78;;;;;;;15.72;75.16;93469.34;2071753;69;20259;-86
2022/07/02 02:23:04;;;;;;;9.95;7.10;;;;;;;15.66;75.25;93471.81;2071864;69;20158;-81
2022/07/02 02:25:31;;;;;;;7.90;6.85;;;;;;;15.71;74.69;93462.91;2071964;69;20568;-83
2022/07/02 02:27:58;;;;;;;8.68;6.70;;;;;;;15.70;75.41;93469.22;2071853;69;20140;-82
2022/07/02 02:30:24;;;;;;;9.80;6.15;;;;;;;15.76;75.03;93469.56;2071961;69;20591;-84
2022/07/02 02:32:50;;;;;;;8.55;4.30;;;;;;;15.37;76.62;93469.50;2068568;69;20156;-72
2022/07/02 02:35:15;;;;;;;6.13;4.50;;;;;;;15.54;76.41;93471.88;2072066;69;20236;-72
2022/07/02 02:37:41;;;;;;;7.15;5.28;;;;;;;15.64;75.77;93475.28;2071833;69;20244;-74
2022/07/02 02:40:07;;;;;;;13.82;3.97;;;;;;;15.50;75.51;93472.38;2071795;69;20144;-78
2022/07/02 02:42:33;;;;;;;4.80;3.75;;;;;;;15.42;76.19;93483.28;2072006;69;20525;-78
2022/07/02 02:44:58;;;;;;;5.65;4.10;;;;;;;15.08;78.35;93481.38;2072124;69;20148;-74
2022/07/02 02:47:24;;;;;;;7.00;3.65;;;;;;;15.44;75.83;93480.59;2071927;69;20156;-73
2022/07/02 02:49:50;;;;;;;5.70;3.85;;;;;;;15.44;76.32;93480.59;2071998;69;20169;-75
2022/07/02 02:52:16;;;;;;;4.70;3.50;;;;;;;15.47;76.37;93484.97;2068730;69;20160;-86
2022/07/02 02:54:42;;;;;;;5.55;3.30;;;;;;;15.42;76.79;93482.56;2069049;69;20148;-86
2022/07/02 02:57:08;;;;;;;3.40;3.10;;;;;;;15.53;76.51;93478.91;2069097;69;20144;-86
2022/07/02 02:59:33;;;;;;;3.75;2.92;;;;;;;15.54;76.37;93482.50;2072403;69;20266;-82
2022/07/02 03:01:59;;;;;;;3.90;3.25;;;;;;;15.58;75.74;93477.03;2072323;69;20144;-83
2022/07/02 03:04:25;;;;;;;4.07;3.40;;;;;;;15.61;75.50;93479.34;2072293;69;20129;-76
2022/07/02 03:06:50;;;;;;;4.97;3.22;;;;;;;15.60;75.53;93477.16;2069142;69;20231;-73
2022/07/02 03:09:16;;;;;;;5.07;3.22;;;;;;;15.57;76.41;93479.13;2072203;69;20152;-73
2022/07/02 03:11:42;;;;;;;7.03;3.80;;;;;;;15.54;76.80;93476.81;2072374;69;20160;-80
2022/07/02 03:14:07;;;;;;;4.85;3.70;;;;;;;15.60;76.57;93474.31;2072478;69;20132;-82
2022/07/02 03:16:33;;;;;;;4.93;3.40;;;;;;;15.62;76.31;93477.97;2072510;69;20491;-78
2022/07/02 03:18:59;;;;;;;5.95;4.07;;;;;;;15.64;75.73;93477.41;2072361;69;20235;-79
2022/07/02 03:21:24;;;;;;;4.13;3.67;;;;;;;15.60;76.37;93480.72;2069159;69;20170;-81
2022/07/02 03:23:50;;;;;;;8.02;3.53;;;;;;;15.57;76.57;93478.38;2072282;69;20147;-84
2022/07/02 03:26:15;;;;;;;3.80;3.40;;;;;;;15.56;76.14;93482.59;2068992;69;20156;-86
2022/07/02 03:28:41;;;;;;;4.47;3.63;;;;;;;15.58;76.36;93479.84;2072336;69;20217;-84
2022/07/02 03:31:07;;;;;;;7.43;3.65;;;;;;;15.57;76.50;93481.22;2072267;69;20140;-83
2022/07/02 03:33:32;;;;;;;6.45;4.20;;;;;;;15.47;76.95;93482.16;2072364;69;20213;-84
2022/07/02 03:35:58;;;;;;;5.20;4.00;;;;;;;15.49;77.25;93490.78;2072423;69;20128;-80
2022/07/02 03:38:24;;;;;;;5.28;3.55;;;;;;;15.53;76.69;93490.25;2072309;69;20593;-72
2022/07/02 03:40:49;;;;;;;8.57;4.38;;;;;;;15.57;76.49;93487.63;2069037;69;20179;-72
2022/07/02 03:43:15;;;;;;;4.78;3.85;;;;;;;15.63;76.25;93481.59;2072284;69;20148;-74
2022/07/02 03:45:41;;;;;;;5.40;3.60;;;;;;;15.63;76.09;93479.47;2072169;69;20561;-72
2022/07/02 03:48:06;;;;;;;4.28;3.88;;;;;;;15.63;76.53;93490.81;2072218;69;20168;-73
2022/07/02 03:50:32;;;;;;;5.43;4.28;;;;;;;15.54;77.45;93494.59;2072408;69;20144;-78
2022/07/02 03:52:57;;;;;;;6.07;3.97;;;;;;;15.62;76.51;93492.16;2072178;69;20212;-83
2022/07/02 03:55:23;;;;;;;5.90;4.00;;;;;;;15.58;76.66;93489.13;2072322;69;20603;-85
2022/07/02 03:57:49;;;;;;;7.88;4.28;;;;;;;15.56;76.96;93497.53;2072195;69;20145;-83
2022/07/02 04:00:15;;;;;;;6.97;4.15;;;;;;;15.62;76.75;93492.16;2072284;69;20538;-85
2022/07/02 04:02:40;;;;;;;6.32;4.15;;;;;;;15.64;76.04;93488.75;2068950;69;20143;-82
2022/07/02 04:05:07;;;;;;;5.55;4.57;;;;;;;15.54;77.70;93486.06;2072393;69;20237;-81
2022/07/02 04:07:33;;;;;;;8.30;4.80;;;;;;;15.55;77.23;93487.53;2072182;69;20152;-77
2022/07/02 04:09:58;;;;;;;5.97;4.78;;;;;;;15.60;77.10;93489.22;2072140;69;20601;-81
2022/07/02 04:12:24;;;;;;;5.07;4.43;;;;;;;15.62;76.89;93486.50;2072283;69;20241;-73
2022/07/02 04:14:50;;;;;;;6.28;4.32;;;;;;;15.61;76.98;93482.19;2068850;69;20137;-75
2022/07/02 04:17:15;;;;;;;8.10;4.68;;;;;;;15.63;76.12;93490.09;2072195;69;20211;-77
2022/07/02 04:19:41;;;;;;;7.85;4.50;;;;;;;15.54;77.38;93496.69;2071863;69;20521;-77
2022/07/02 04:22:06;;;;;;;6.05;4.85;;;;;;;15.55;77.44;93496.06;2071743;69;20151;-80
2022/07/02 04:24:32;;;;;;;7.03;4.88;;;;;;;15.54;77.89;93493.84;2071788;69;20590;-80
2022/07/02 04:26:58;;;;;;;9.02;4.65;;;;;;;15.64;76.48;93486.66;2068758;69;20140;-83
2022/07/02 04:29:24;;;;;;;5.30;4.22;;;;;;;15.60;76.62;93497.00;2072038;69;20245;-79
2022/07/02 04:31:49;;;;;;;9.05;5.03;;;;;;;15.61;76.53;93496.38;2072051;69;20566;-81
2022/07/02 04:34:15;;;;;;;7.20;4.80;;;;;;;15.70;76.62;93494.75;2068879;69;20144;-83
2022/07/02 04:36:41;;;;;;;8.30;4.20;;;;;;;15.65;76.91;93493.06;2072218;69;20152;-79
2022/07/02 04:39:07;;;;;;;8.02;4.65;;;;;;;15.67;76.31;93487.50;2071934;69;20710;-83
2022/07/02 04:41:32;;;;;;;8.80;4.57;;;;;;;15.71;74.99;93494.16;2068978;69;20152;-73
2022/07/02 04:43:59;;;;;;;6.60;5.20;;;;;;;15.66;76.55;93495.25;2072340;69;20140;-73
2022/07/02 04:46:25;;;;;;;8.20;5.50;;;;;;;15.69;77.07;93496.84;2072190;69;20168;-73
2022/07/02 04:48:51;;;;;;;6.72;4.80;;;;;;;15.70;76.54;93497.59;2072208;69;20128;-75
2022/07/02 04:51:17;;;;;;;7.30;4.38;;;;;;;15.80;75.55;93503.81;2072288;69;20156;-78
2022/07/02 04:53:43;;;;;;;8.52;4.50;;;;;;;15.87;74.56;93502.78;2072085;69;20564;-74
2022/07/02 04:56:09;;;;;;;5.30;4.40;;;;;;;15.73;76.07;93502.75;2072288;69;20599;-81
2022/07/02 04:58:34;;;;;;;5.18;4.65;;;;;;;15.74;76.29;93498.56;2072189;69;20192;-80
2022/07/02 05:01:00;;;;;;;6.50;4.57;;;;;;;15.78;76.08;93505.81;2072311;69;20148;-87
2022/07/02 05:03:26;;;;;;;5.63;4.72;;;;;;;15.80;76.05;93492.47;2068912;69;20201;-78
2022/07/02 05:05:52;;;;;;;5.25;4.28;;;;;;;15.89;75.70;93494.38;2072223;69;20136;-86
2022/07/02 05:08:24;;;;;;;4.93;4.22;;;;;;;15.91;75.00;93505.84;2068599;69;20147;-81
2022/07/02 05:10:50;;;;;;;5.17;4.53;;;;;;;15.89;74.70;93505.72;2068693;69;20565;-78
2022/07/02 05:13:15;;;;;;;7.05;4.35;;;;;;;15.77;74.31;93502.25;2072199;69;20183;-81
2022/07/02 05:15:42;;;;;;;4.85;3.90;;;;;;;15.82;74.23;93506.03;2072153;69;20651;-76
2022/07/02 05:18:07;;;;;;;5.45;3.90;;;;;;;15.71;74.53;93505.50;2072355;69;20179;-74
2022/07/02 05:20:33;;;;;;;5.90;3.58;;;;;;;15.83;74.62;93507.50;2072235;69;20152;-73
2022/07/02 05:22:58;;;;;;;5.68;3.35;;;;;;;15.90;74.29;93510.06;2072035;69;20168;-74
2022/07/02 05:25:24;;;;;;;6.10;3.47;;;;;;;16.03;73.66;93511.44;2068679;69;20164;-75
2022/07/02 05:27:50;;;;;;;4.43;3.50;;;;;;;16.09;74.57;93506.09;2072247;69;20139;-73
2022/07/02 05:30:15;;;;;;;4.07;3.33;;;;;;;16.17;74.28;93517.13;2072195;69;20144;-82
2022/07/02 05:32:41;;;;;;;6.75;4.10;;;;;;;16.12;75.12;93513.34;2065957;69;20573;-80
2022/07/02 05:35:07;;;;;;;5.38;3.75;;;;;;;16.17;74.59;93515.06;2072102;69;20227;-81
2022/07/02 05:37:33;;;;;;;6.38;4.00;;;;;;;16.16;74.56;93510.72;2068689;69;20140;-86
2022/07/02 05:39:58;;;;;;;5.25;3.60;;;;;;;16.35;72.35;93515.25;2072097;69;20599;-86
2022/07/02 05:42:24;;;;;;;4.57;3.40;;;;;;;16.35;72.53;93509.56;2068666;69;20175;-78
2022/07/02 05:44:49;;;;;;;4.03;3.17;;;;;;;16.45;72.18;93510.13;2071962;69;20144;-76
2022/07/02 05:47:15;;;;;;;4.80;3.20;;;;;;;16.45;72.67;93520.75;2071957;69;20144;-73
2022/07/02 05:49:41;;;;;;;5.70;3.28;;;;;;;16.51;72.16;93515.38;2072251;69;20144;-73
2022/07/02 05:52:07;;;;;;;4.82;3.17;;;;;;;16.59;72.36;93518.63;2071887;69;20163;-73
2022/07/02 05:54:35;;;;;;;4.95;3.05;;;;;;;16.61;72.36;93512.31;2071826;69;20227;-78
2022/07/02 05:57:00;;;;;;;3.47;3.10;;;;;;;16.61;72.27;93515.88;2068953;69;20184;-78
2022/07/02 05:59:26;;;;;;;4.63;3.22;;;;;;;16.74;72.40;93515.19;2072010;69;20638;-80
2022/07/02 06:01:52;;;;;;;2.97;2.60;;;;;;;16.79;72.60;93518.97;2071892;69;20148;-78
2022/07/02 06:04:17;;;;;;;4.65;2.70;;;;;;;16.85;70.41;93524.94;2068666;69;20147;-80
2022/07/02 06:09:27;;;;;;;2.60;2.40;;;;;;;17.06;70.75;93520.28;2071667;69;20255;-81
2022/07/02 06:11:53;;;;;;;2.67;2.30;;;;;;;17.07;70.48;93528.19;2072068;69;20225;-79
2022/07/02 06:14:19;;;;;;;4.22;2.38;;;;;;;17.12;69.56;93521.31;2071921;69;20140;-80
2022/07/02 06:16:44;;;;;;;4.30;2.50;;;;;;;16.64;70.33;93506.09;2071862;69;20160;-80
2022/07/02 06:19:10;;;;;;;2.53;2.33;;;;;;;16.56;70.39;93510.63;2072076;69;20152;-75
2022/07/02 06:21:35;;;;;;;4.70;2.83;;;;;;;16.53;70.88;93516.19;2071899;69;20598;-78
2022/07/02 06:24:01;;;;;;;3.80;2.42;;;;;;;16.72;69.90;93511.47;2071865;69;20235;-73
2022/07/02 06:26:27;;;;;;;3.20;2.30;;;;;;;17.16;68.78;93510.13;2071508;69;20148;-72
2022/07/02 06:28:53;;;;;;;3.33;2.58;;;;;;;17.12;68.84;93509.22;2071842;69;20168;-73
2022/07/02 06:31:18;;;;;;;4.90;2.70;;;;;;;17.38;68.72;93507.66;2071789;69;20237;-73
2022/07/02 06:33:44;;;;;;;4.85;2.55;;;;;;;17.38;68.28;93504.81;2071950;69;20156;-76
2022/07/02 06:36:14;;;;;;;4.90;2.60;;;;;;;17.13;69.22;93505.72;2068599;69;20140;-81
2022/07/02 06:38:41;;;;;;;3.47;2.30;;;;;;;17.27;68.36;93497.13;2071967;69;20133;-84
2022/07/02 06:43:51;;;;;;;4.53;2.20;;;;;;;17.71;68.34;93498.53;2069153;69;20231;-80
2022/07/02 06:46:16;;;;;;;3.60;2.50;;;;;;;17.53;67.65;93495.56;2071919;69;20150;-76
2022/07/02 06:48:42;;;;;;;4.90;2.53;;;;;;;17.73;67.45;93495.03;2068631;69;20140;-80
2022/07/02 06:51:08;;;;;;;2.78;2.13;;;;;;;17.83;66.64;93497.69;2072048;69;20146;-75
2022/07/02 06:53:33;;;;;;;2.42;2.00;;;;;;;17.60;65.70;93493.75;2071788;69;20148;-74
2022/07/02 06:55:59;;;;;;;2.80;1.52;;;;;;;17.70;65.32;93499.94;2071748;69;20140;-78
2022/07/02 06:58:24;;;;;;;2.22;1.63;;;;;;;17.90;64.35;93500.16;2071880;69;20156;-77
2022/07/02 07:00:50;;;;;;;3.90;1.58;;;;;;;18.17;64.11;93501.38;2071791;69;20148;-75
2022/07/02 07:03:16;;;;;;;2.67;1.58;;;;;;;18.31;63.65;93498.44;2071722;69;20148;-73
2022/07/02 07:05:46;;;;;;;1.63;1.52;;;;;;;18.34;64.63;93497.88;2068337;69;20152;-73
2022/07/02 07:08:12;;;;;;;2.20;1.58;;;;;;;18.47;63.75;93499.88;2071598;69;20153;-74
2022/07/02 07:10:38;;;;;;;1.98;1.60;;;;;;;18.57;64.14;93501.72;2071672;69;20225;-76
2022/07/02 07:13:04;;;;;;;2.53;1.52;;;;;;;18.61;63.30;93502.63;2071791;69;20573;-74
2022/07/02 07:15:30;;;;;;;4.93;1.50;;;;;;;18.67;62.34;93493.59;2071673;69;20471;-76
2022/07/02 07:17:55;;;;;;;2.72;1.42;;;;;;;18.59;61.62;93502.53;2068319;69;20202;-79
2022/07/02 07:20:26;;;;;;;1.30;1.20;;;;;;;18.58;62.73;93498.22;2071870;69;20240;-81
2022/07/02 07:22:53;;;;;;;2.17;1.20;;;;;;;18.82;62.21;93492.84;2071602;69;20235;-78
2022/07/02 07:25:19;;;;;;;1.20;1.10;;;;;;;18.91;62.29;93500.38;2071632;69;20156;-82
2022/07/02 07:27:45;;;;;;;1.30;1.20;;;;;;;18.89;60.84;93511.72;2071789;69;20160;-79
2022/07/02 07:30:12;;;;;;;1.35;1.08;;;;;;;18.83;60.79;93505.75;2071864;69;20155;-84
2022/07/02 07:32:38;;;;;;;2.13;1.20;;;;;;;18.58;59.46;93506.78;2071787;69;20217;-82
2022/07/02 07:35:04;;;;;;;1.42;1.10;;;;;;;19.17;60.64;93494.31;2071725;69;20156;-82
2022/07/02 07:37:30;;;;;;;1.23;1.00;;;;;;;18.84;59.74;93498.66;2071914;69;20242;-73
2022/07/02 07:39:56;;;;;;;1.58;1.30;;;;;;;19.23;58.49;93495.28;2072322;69;20540;-73
2022/07/02 07:42:22;;;;;;;1.38;1.10;;;;;;;19.09;59.77;93496.81;2072286;69;20149;-74
2022/07/02 07:44:51;;;;;;;1.92;1.10;;;;;;;19.30;58.93;93499.13;2072231;69;20172;-76
2022/07/02 07:47:16;;;;;;;2.67;1.20;;;;;;;19.56;58.44;93493.75;2072360;69;20198;-85
2022/07/02 07:49:42;;;;;;;1.20;1.05;;;;;;;19.85;58.30;93484.22;2068998;69;20147;-84
2022/07/02 07:52:08;;;;;;;1.20;1.10;;;;;;;19.79;58.62;93487.59;2072279;69;20156;-78
2022/07/02 07:54:33;;;;;;;2.55;1.05;;;;;;;20.05;58.43;93490.69;2072266;69;20152;-80
2022/07/02 07:56:59;;;;;;;1.17;1.00;;;;;;;20.04;58.30;93485.66;2072460;69;20267;-80
2022/07/02 07:59:25;;;;;;;1.77;1.00;;;;;;;20.03;58.63;93481.34;2072253;69;20156;-77
2022/07/02 08:01:50;;;;;;;1.42;1.33;;;;;;;19.54;55.27;93474.41;2068819;69;20171;-78
2022/07/02 08:04:16;;;;;;;1.10;1.00;;;;;;;19.30;56.03;93467.75;2072167;69;20209;-84
2022/07/02 08:06:42;;;;;;;1.60;1.15;;;;;;;19.30;55.51;93457.06;2072144;69;20223;-84
2022/07/02 08:09:07;;;;;;;1.85;1.08;;;;;;;19.18;56.96;93459.41;2071946;69;20152;-75
2022/07/02 08:11:33;;;;;;;1.33;1.10;;;;;;;19.39;55.75;93465.94;2072062;69;20172;-74
2022/07/02 08:13:59;;;;;;;1.17;1.05;;;;;;;19.25;54.10;93463.25;2072099;69;20157;-75
2022/07/02 08:16:25;;;;;;;2.65;1.30;;;;;;;19.30;54.03;93454.19;2072128;69;20162;-81
2022/07/02 08:18:51;;;;;;;1.30;1.20;;;;;;;19.41;53.90;93452.47;2072335;69;20515;-81
2022/07/02 08:21:16;;;;;;;1.20;1.10;;;;;;;19.98;55.16;93459.72;2068889;69;20144;-78
2022/07/02 08:23:42;;;;;;;2.40;1.20;;;;;;;20.36;55.75;93453.94;2071932;69;20152;-78
2022/07/02 08:26:07;;;;;;;1.40;1.10;;;;;;;20.59;54.21;93453.38;2072143;69;20591;-89
2022/07/02 08:28:33;;;;;;;1.75;1.23;;;;;;;20.74;54.80;93440.31;2072351;69;20131;-81
2022/07/02 08:31:01;;;;;;;1.20;1.10;;;;;;;20.72;55.14;93440.25;2072191;69;20287;-81
2022/07/02 08:33:27;;;;;;;3.35;1.10;;;;;;;21.00;50.87;93446.94;2072000;69;20160;-83
2022/07/02 08:35:52;;;;;;;2.38;1.20;;;;;;;20.92;52.17;93443.06;2068985;69;20234;-86
2022/07/02 08:38:18;;;;;;;1.20;1.10;;;;;;;20.70;51.49;93443.75;2068860;69;20223;-89
2022/07/02 08:40:44;;;;;;;1.45;1.35;;;;;;;21.86;53.72;93423.94;2072363;69;20133;-89
2022/07/02 08:43:15;;;;;;;3.40;1.17;;;;;;;21.23;50.24;93433.38;2072468;69;20519;-77
2022/07/02 08:45:42;;;;;;;2.83;1.20;;;;;;;21.35;50.98;93433.81;2072361;69;20136;-81
2022/07/02 08:48:09;;;;;;;2.40;1.10;;;;;;;21.71;50.31;93422.75;2072409;69;20162;-74
2022/07/02 08:50:35;;;;;;;1.65;1.20;;;;;;;22.56;51.68;93427.41;2072538;69;20683;-84
2022/07/02 08:53:04;;;;;;;2.28;1.40;;;;;;;22.26;48.26;93417.94;2072274;69;20148;-75
2022/07/02 08:55:32;;;;;;;1.42;1.30;;;;;;;22.20;47.75;93412.75;2066197;69;20140;-86
2022/07/02 08:57:59;;;;;;;3.42;1.33;;;;;;;22.72;47.11;93414.91;2072569;69;20156;-80
2022/07/02 09:00:25;;;;;;;1.52;1.42;;;;;;;23.34;48.39;93412.22;2072376;69;20182;-76
2022/07/02 09:02:53;;;;;;;1.98;1.27;;;;;;;22.92;44.71;93404.00;2072377;69;20139;-78
2022/07/02 09:05:21;;;;;;;1.42;1.30;;;;;;;23.42;46.61;93400.94;2069169;69;20206;-75
2022/07/02 09:07:48;;;;;;;1.70;1.30;;;;;;;23.26;47.30;93391.91;2072316;69;20227;-81
2022/07/02 09:10:17;;;;;;;9.23;3.05;;;;;;;23.50;47.19;93397.50;2072216;69;20128;-78
2022/07/02 09:12:44;;;;;;;8.73;2.80;;;;;;;24.06;47.67;93391.63;2072196;69;20594;-82
2022/07/02 09:15:10;;;;;;;3.15;1.60;;;;;;;24.79;43.52;93384.47;2068743;69;20257;-78
2022/07/02 09:17:41;;;;;;;1.50;1.30;;;;;;;25.66;43.20;93392.41;2068830;69;20219;-83
2022/07/02 09:20:08;;;;;;;4.00;1.90;;;;;;;24.93;43.75;93375.34;2071981;69;20288;-81
2022/07/02 09:22:48;;;;;;;4.75;2.17;;;;;;;24.35;44.82;93378.53;2071831;69;20202;-78
2022/07/02 09:25:19;;;;;;;4.28;1.95;;;;;;;25.49;44.08;93374.88;2072024;69;20668;-82
2022/07/02 09:27:46;;;;;;;2.97;1.30;;;;;;;24.61;42.65;93363.25;2068662;69;20160;-80
2022/07/02 09:30:16;;;;;;;40.63;12.43;;;;;;;25.56;44.75;93367.03;2072039;69;20147;-76
2022/07/02 09:32:44;;;;;;;24.17;8.02;;;;;;;25.30;44.35;93376.00;2071958;69;20159;-75
2022/07/02 09:35:22;;;;;;;1.70;1.15;;;;;;;25.82;43.16;93366.72;2068411;69;20715;-82
2022/07/02 09:37:49;;;;;;;7.72;2.13;;;;;;;26.32;43.60;93377.50;2068480;69;20154;-76
2022/07/02 09:40:17;;;;;;;1.58;1.33;;;;;;;25.59;40.64;93375.03;2068736;69;20217;-77
2022/07/02 09:42:48;;;;;;;10.48;3.80;;;;;;;26.33;42.71;93373.19;2072037;69;20201;-77
2022/07/02 09:45:16;;;;;;;16.58;7.03;;;;;;;26.35;43.48;93364.56;2072488;69;20160;-77
2022/07/02 09:47:54;;;;;;;1.20;1.10;;;;;;;26.14;40.42;93357.78;2072417;69;20514;-80
2022/07/02 09:50:22;;;;;;;2.13;1.50;;;;;;;26.36;39.65;93360.97;2072610;69;20137;-75
2022/07/02 09:52:53;;;;;;;2.08;1.20;;;;;;;26.12;41.90;93348.41;2072404;69;20151;-78
2022/07/02 09:55:27;;;;;;;1.60;1.38;;;;;;;26.41;42.23;93343.69;2072865;69;20523;-74
2022/07/02 09:57:56;;;;;;;1.77;1.50;;;;;;;26.64;40.98;93342.53;2075383;69;20200;-74
2022/07/02 10:00:23;;;;;;;1.42;1.10;;;;;;;27.05;42.26;93337.88;2075841;69;20267;-75
2022/07/02 10:02:54;;;;;;;1.80;1.50;;;;;;;26.08;41.90;93334.63;2075826;69;20154;-74
2022/07/02 10:05:33;;;;;;;1.55;1.25;;;;;;;26.92;41.07;93330.53;2076077;69;20247;-77
2022/07/02 10:08:04;;;;;;;2.65;1.15;;;;;;;26.29;39.70;93335.59;2075946;69;20101;-76
2022/07/02 10:10:41;;;;;;;1.50;1.20;;;;;;;27.65;41.34;93330.44;2069584;69;20140;-74
2022/07/02 10:13:08;;;;;;;2.15;1.13;;;;;;;27.58;38.29;93331.81;2067167;69;20174;-86
2022/07/02 10:15:39;;;;;;;1.40;1.30;;;;;;;28.20;39.32;93332.94;2065211;69;20161;-79
2022/07/02 10:18:05;;;;;;;3.10;1.30;;;;;;;27.91;38.80;93338.59;2065937;69;20232;-82
2022/07/02 10:20:33;;;;;;;2.22;1.20;;;;;;;28.03;38.08;93327.06;2066038;69;20176;-76
2022/07/02 10:23:04;;;;;;;1.48;1.20;;;;;;;27.83;38.24;93327.69;2065640;69;20160;-80
2022/07/02 10:25:30;;;;;;;2.97;1.20;;;;;;;27.53;38.67;93322.38;2065686;69;20145;-73
2022/07/02 10:27:57;;;;;;;1.13;1.05;;;;;;;28.24;37.78;93316.31;2065827;69;20153;-74
2022/07/02 10:30:42;;;;;;;1.40;1.10;;;;;;;29.31;37.25;93323.13;2065750;69;20166;-83
2022/07/02 10:33:33;;;;;;;5.50;1.30;;;;;;;28.50;35.98;93312.06;2065774;69;20273;-74
2022/07/02 10:36:00;;;;;;;1.30;1.15;;;;;;;29.31;34.58;93311.50;2065674;69;20205;-73
2022/07/02 10:38:33;;;;;;;4.22;1.20;;;;;;;28.77;35.55;93301.28;2065462;69;20153;-74
2022/07/02 10:40:59;;;;;;;4.50;1.10;;;;;;;29.27;34.85;93294.13;2065390;69;20156;-74
2022/07/02 10:43:29;;;;;;;1.63;1.10;;;;;;;29.54;33.92;93291.94;2065255;69;20203;-76
2022/07/02 10:46:06;;;;;;;1.17;1.10;;;;;;;30.29;32.66;93294.69;2065272;69;20160;-81
2022/07/02 10:48:34;;;;;;;1.10;1.00;;;;;;;29.89;33.58;93295.53;2065857;69;20232;-81
2022/07/02 10:51:00;;;;;;;1.92;1.10;;;;;;;31.74;31.90;93293.03;2065560;69;20144;-80
2022/07/02 10:53:27;;;;;;;1.40;1.00;;;;;;;31.77;32.41;93295.19;2065269;69;20712;-82
2022/07/02 10:55:53;;;;;;;1.83;0.82;;;;;;;32.73;29.89;93284.66;2064897;69;20237;-85
2022/07/02 10:58:20;;;;;;;1.55;1.05;;;;;;;32.03;30.80;93284.78;2065546;69;20147;-87
2022/07/02 11:00:46;;;;;;;0.88;0.88;;;;;;;33.10;28.63;93287.78;2065683;69;20164;-86
2022/07/02 11:03:33;;;;;;;2.30;1.13;;;;;;;33.63;28.59;93278.94;2065698;69;20240;-81
2022/07/02 11:06:05;;;;;;;2.92;1.00;;;;;;;37.83;25.61;93282.38;2066060;69;20161;-77
2022/07/02 11:08:49;;;;;;;0.90;0.70;;;;;;;38.14;23.22;93296.06;2065691;69;20159;-83
2022/07/02 11:11:17;;;;;;;1.50;0.88;;;;;;;38.19;22.00;93282.66;2069081;69;20140;-84
2022/07/02 11:13:55;;;;;;;1.50;0.80;;;;;;;39.86;21.92;93288.13;2069392;69;20208;-81
2022/07/02 11:16:22;;;;;;;2.60;1.05;;;;;;;41.41;20.74;93276.91;2069759;69;20187;-74
2022/07/02 11:18:49;;;;;;;1.13;0.80;;;;;;;42.91;19.54;93279.72;2069426;69;20603;-87
2022/07/02 11:21:16;;;;;;;1.23;0.80;;;;;;;41.68;19.93;93270.41;2068612;69;20248;-82
2022/07/02 11:23:42;;;;;;;0.93;0.80;;;;;;;39.78;20.20;93264.19;2069315;69;20152;-78
2022/07/02 11:26:08;;;;;;;0.90;0.80;;;;;;;44.08;18.56;93266.50;2069563;69;20149;-86
2022/07/02 11:28:38;;;;;;;2.03;0.88;;;;;;;45.94;17.83;93266.88;2069028;69;20229;-87
2022/07/02 11:31:05;;;;;;;1.45;0.90;;;;;;;44.24;18.74;93258.19;2069359;69;20132;-75
2022/07/02 11:33:33;;;;;;;1.67;0.90;;;;;;;41.67;19.30;93239.44;2069229;69;20163;-74
2022/07/02 11:36:00;;;;;;;1.15;0.80;;;;;;;44.14;18.47;93245.34;2069697;69;20152;-76
2022/07/02 11:38:26;;;;;;;1.15;0.75;;;;;;;43.00;18.80;93230.34;2069627;69;20148;-87
2022/07/02 11:40:52;;;;;;;2.33;0.90;;;;;;;45.81;17.38;93248.41;2069857;69;20591;-86